AirNav   Pilot Hours Calculator
 
 696 users online  

CYQG Windsor Airport
Windsor, Ontario, Canada

GOING TO WINDSOR?


FAA INFORMATION EFFECTIVE 23 MAY 2019

The information below comes from the U.S. Federal Aviation Administration (FAA). The FAA is not the official source of data for facilities located outside the United States, and THESE RECORDS ARE LIKELY NOT COMPLETE OR CORRECT.

Location

FAA Identifier: CYQG
Lat/Long: 42-16-33.1111N / 082-57-27.5347W
42-16.551852N / 082-57.458912W
42.2758642 / -82.9576485
(estimated)
Elevation: 622 ft. / 190 m (estimated)
Variation: 07W ()
Time zone: UTC -4 (UTC -5 during Standard Time)
Zip code: 48243

Airport Operations

Airport use: Open to the public
Activation date: 03/2005
Control tower: no
ARTCC: CLEVELAND CENTER
FSS: LONDON FIC FLIGHT SERVICE STATION
Attendance: 
Segmented circle: no

Airport Communications

WX ASOS at DET (8 nm N): PHONE 313-371-9696
WX AWOS-3 at ONZ (14 nm SW): 119.675 (734-692-9686)
WX ASOS at DTW (18 nm W): PHONE 734-955-5015
WX AWOS-3 at VLL (19 nm NW): 119.475 (248-288-4649)

Nearby radio navigation aids

VOR radial/distance  VOR name  Freq  Var
YQGr291/5.9WINDSOR VOR/DME113.8006W
DXOr084/18.6DETROIT VOR/DME113.4006W
CRLr061/26.1CARLETON VOR/DME115.7003W
SVMr109/29.3SALEM VORTAC114.3003W

 
NDB name  Hdg/Dist  Freq  Var  ID
GROSSE ILE047/13.641907WRYS .-. -.-- ...

Airport Services

Runway Information

Runway 7/25

Dimensions: 9000 x 200 ft. / 2743 x 61 m
Surface: asphalt
RUNWAY 7  RUNWAY 25
Latitude: 42-16.404018N42-17.086803N
Longitude: 082-58.209487W082-56.438652W
Elevation: 622.0 ft.608.0 ft.
Traffic pattern: leftleft
Runway heading: 070 magnetic, 063 true250 magnetic, 243 true
Displaced threshold: 901 ft.1143 ft.
Touchdown point: yes, no lightsyes, no lights

Runway 12/30

Dimensions: 5150 x 150 ft. / 1570 x 46 m
Surface: asphalt
RUNWAY 12  RUNWAY 30
Latitude: 42-16.396830N42-16.030400N
Longitude: 082-58.209295W082-57.179820W
Elevation: 622.0 ft.619.0 ft.
Traffic pattern: leftleft
Runway heading: 123 magnetic, 116 true303 magnetic, 296 true
Displaced threshold: 570 ft.321 ft.
Touchdown point: yes, no lightsyes, no lights

Airport Ownership and Management from official FAA records

Ownership: Publicly-owned

Additional Remarks

FOR CD CTC DETROIT APCH AT 800-499-8181.

Instrument Procedures

There are no published instrument procedures at CYQG.

Some nearby airports with instrument procedures:

KDET - Coleman A Young Municipal Airport (8 nm N)
KONZ - Grosse Ile Municipal Airport (14 nm SW)
KDTW - Detroit Metropolitan Wayne County Airport (18 nm W)
KVLL - Oakland/Troy Airport (19 nm NW)
KMTC - Selfridge Air National Guard Base (21 nm N)
 
Loc | Ops | Rwys | IFR | FBO | Links
Com | Nav | Svcs | Stats | Notes
Aerial photo
No photo
 
Airport distance calculator
Flying to Windsor Airport? Find the distance to fly.

From to CYQG

Sunrise and sunset
Times for 23-May-2019
 Local
(UTC-4)
 Zulu
(UTC)
Morning civil twilight05:3109:31
Sunrise06:0410:04
Sunset20:5300:53
Evening civil twilight21:2601:26

Current date and time
Zulu (UTC)  23-May-2019 11:53:19
Local (UTC-4)  23-May-2019 07:53:19
 
METAR
CYQG 231131Z AUTO 25016G25KT 9SM -RA VCTS FEW023 SCT091 OVC110 19/17 A2996 RMK LTNG DIST ALQDS SLP146 DENSITY ALT 1100FT
KDET 
8nm N 
231122Z 26010KT 4SM RA BR FEW009 BKN090 OVC110 18/17 A2995 RMK AO2 PK WND 24031/1056 LTG DSNT ALQDS RAB1056 TSB1055E18 TS OVD MOV E P0010 T01830167
KONZ 
14nm SW 
231135Z AUTO 25007G16KT 10SM -RA OVC110 18/17 A2995 RMK AO2 T01820173
CXHA 
15nm S 
231100Z AUTO 21009G15KT 18/17 RMK AO1 1PAST HR 3001 SLP139 P0000 T01770174 50001
KDTW 
17nm W 
231125Z 24015G23KT 4SM -TSRA SCT020 BKN035CB OVC075 19/16 A2995 RMK AO2 PK WND 25028/1056 WSHFT 1040 LTG DSNT N-SE FRQ LTGICCCCG N-SE AND OHD TS N-SE AND OHD MOV E P0006 T01890156
KVLL 
19nm NW 
231135Z AUTO 21003KT 4SM -RA SCT014 BKN046 OVC055 17/15 A2994 RMK AO2 T01680152
TAF
CYQG 230905Z 2309/2406 20006KT P6SM SCT100 TEMPO 2309/2312 2SM BR PROB30 2309/2312 1SM BR BKN005 FM231200 20012KT P6SM -SHRA SCT008 OVC080 TEMPO 2312/2315 21/2SM SHRA BR SCT008 OVC015 PROB40 2312/2314 VRB20G40KT 1SM +TSRA BR BKN005 OVC020CB FM231500 23015G25KT P6SM BKN015 FM231700 26020G30KT P6SM FEW025 BECMG 2322/2324 28015KT RMK FCST BASED ON AUTO OBS. NXT FCST BY 231200Z
KDET 
8nm N 
230900Z 2309/2406 18005KT 5SM BR SCT150 BKN250 WS010/20040KT FM231100 21012KT 3SM SHRA VCTS OVC025CB WS010/20040KT FM231300 23017G23KT P6SM BKN025 OVC250 FM231800 26020G29KT P6SM SKC
KDTW 
17nm W 
230858Z 2309/2412 18004KT 3SM BR FEW008 SCT060 BKN150 WS010/20040KT TEMPO 2309/2311 1SM BR BKN008 FM231100 21012KT 3SM SHRA VCTS OVC025CB WS010/20040KT FM231300 23017G23KT P6SM BKN025 OVC250 FM231800 26020G29KT P6SM SKC
NOTAMs
Click for the latest NOTAMs
NOTAMs are issued by the DoD/FAA and will open in a separate window not controlled by AirNav.

 

 
 

Would you like to see your business listed on this page?

 If your business provides an interesting product or service to pilots, flight crews, aircraft, or users of the Windsor Airport, you should consider listing it here.  To start the listing process, click on the button below
 
Add a business
 

Other Pages about Windsor Airport

Update a link
 
Copyright © AirNav, LLC. All rights reserved. Privacy Policy  Contact